Storm Events Database

Event Details

Event Thunderstorm Wind
Magnitude 65 kts.
State TEXAS
County/Area COLLIN
WFO FWD
Report Source Amateur Radio
NCDC Data Source CSV
Begin Date 2009-02-10 22:00:00.0 CST-6
Begin Location 0SW WYLIE
Begin Lat/Lon 33.02/-96.55
End Date 2009-02-10 22:00:00.0 CST-6
Deaths Direct/Indirect 0/0 (fatality details below, when available...)
Injuries Direct/Indirect 0/0
Property Damage 50.00K
Crop Damage 0.00K
Episode Narrative Severe thunderstorms along a dryline moved into the northwestern portions of north Texas during the early evening hours. A Pacific front overtook the dryline during the evening hours and a severe squall line moved through north Texas. Widespread wind damage and hail was common, and a few tornadoes also occurred in Montague and Tarrant counties.
Event Narrative A barn was damaged near Wylie. Three homes in Wylie also sustained minor damage.


     ‚Äč



All events for this episode:

Location County/Zone St. Date Time T.Z. Type Mag Dth Inj PrD CrD
Totals: 0 3 1.604M 0.00K
BELCHERVILLE MONTAGUE CO. TX 02/10/2009 18:25 CST-6 Tornado EF0 0 0 20.00K 0.00K
BELCHERVILLE MONTAGUE CO. TX 02/10/2009 18:30 CST-6 Hail 2.75 in. 0 0 8.00K 0.00K
SPANISH FT MONTAGUE CO. TX 02/10/2009 18:45 CST-6 Tornado EF1 0 0 0.00K 0.00K
BOWIE MONTAGUE CO. TX 02/10/2009 19:04 CST-6 Hail 1.00 in. 0 0 0.00K 0.00K
BOWIE MONTAGUE CO. TX 02/10/2009 19:11 CST-6 Hail 1.00 in. 0 0 0.50K 0.00K
BRIDGEPORT WISE CO. TX 02/10/2009 19:22 CST-6 Thunderstorm Wind 63 kts. EG 0 0 0.00K 0.00K
BRIDGEPORT WISE CO. TX 02/10/2009 19:22 CST-6 Hail 1.75 in. 0 0 1.00K 0.00K
PROCTOR COMANCHE CO. TX 02/10/2009 19:25 CST-6 Thunderstorm Wind 50 kts. EG 0 0 0.00K 0.00K
RISING STAR EASTLAND CO. TX 02/10/2009 19:25 CST-6 Thunderstorm Wind 65 kts. EG 0 0 10.00K 0.00K
EASTLAND EASTLAND CO. TX 02/10/2009 19:40 CST-6 Thunderstorm Wind 50 kts. EG 0 0 0.00K 0.00K
DEMOCRAT MILLS CO. TX 02/10/2009 19:45 CST-6 Thunderstorm Wind 60 kts. EG 0 0 0.00K 0.00K
STEPHENVILLE ERATH CO. TX 02/10/2009 19:47 CST-6 Hail 1.75 in. 0 0 10.00K 0.00K
STEPHENVILLE ERATH CO. TX 02/10/2009 19:59 CST-6 Hail 2.00 in. 0 0 8.00K 0.00K
MUENSTER COOKE CO. TX 02/10/2009 20:00 CST-6 Thunderstorm Wind 60 kts. EG 0 0 0.00K 0.00K
MUENSTER COOKE CO. TX 02/10/2009 20:00 CST-6 Hail 1.00 in. 0 0 0.00K 0.00K
BLUFF DALE ERATH CO. TX 02/10/2009 20:04 CST-6 Hail 1.00 in. 0 0 0.00K 0.00K
GUSTINE COMANCHE CO. TX 02/10/2009 20:05 CST-6 Thunderstorm Wind 60 kts. EG 0 0 3.00K 0.00K
MUENSTER COOKE CO. TX 02/10/2009 20:17 CST-6 Hail 0.88 in. 0 0 0.00K 0.00K
THORP SPG HOOD CO. TX 02/10/2009 20:18 CST-6 Hail 1.00 in. 0 0 0.00K 0.00K
BLUE RIDGE HAMILTON CO. TX 02/10/2009 20:20 CST-6 Thunderstorm Wind 61 kts. EG 0 0 8.00K 0.00K
HAMILTON HAMILTON CO. TX 02/10/2009 20:20 CST-6 Hail 1.75 in. 0 0 10.00K 0.00K
HAMILTON HAMILTON CO. TX 02/10/2009 20:20 CST-6 Thunderstorm Wind 61 kts. EG 0 0 5.00K 0.00K
SHIVE HAMILTON CO. TX 02/10/2009 20:20 CST-6 Thunderstorm Wind 61 kts. EG 0 0 50.00K 0.00K
GAINESVILLE COOKE CO. TX 02/10/2009 20:22 CST-6 Hail 1.75 in. 0 0 3.00K 0.00K
TOLAR HOOD CO. TX 02/10/2009 20:25 CST-6 Hail 1.75 in. 0 0 7.00K 0.00K
KRUM DENTON CO. TX 02/10/2009 20:38 CST-6 Thunderstorm Wind 60 kts. EG 0 0 8.00K 0.00K
SANGER DENTON CO. TX 02/10/2009 20:40 CST-6 Thunderstorm Wind 52 kts. EG 0 0 0.00K 0.00K
LAMPASAS LAMPASAS CO. TX 02/10/2009 20:44 CST-6 Thunderstorm Wind 60 kts. EG 0 0 2.00K 0.00K
SANGER DENTON CO. TX 02/10/2009 20:44 CST-6 Thunderstorm Wind 52 kts. EG 0 0 0.00K 0.00K
SANGER DENTON CO. TX 02/10/2009 20:45 CST-6 Hail 0.88 in. 0 0 0.00K 0.00K
MAMBRINO HOOD CO. TX 02/10/2009 20:54 CST-6 Thunderstorm Wind 60 kts. EG 0 0 3.00K 0.00K
TIOGA GRAYSON CO. TX 02/10/2009 20:54 CST-6 Thunderstorm Wind 50 kts. EG 0 0 0.00K 0.00K
SEMINARY HILL TARRANT CO. TX 02/10/2009 20:55 CST-6 Hail 1.00 in. 0 0 0.00K 0.00K
WHITNEY HILL CO. TX 02/10/2009 21:00 CST-6 Thunderstorm Wind 80 kts. EG 0 0 3.00K 0.00K
GATESVILLE ARPT CORYELL CO. TX 02/10/2009 21:05 CST-6 Thunderstorm Wind 64 kts. MG 0 0 0.00K 0.00K
HURON HILL CO. TX 02/10/2009 21:05 CST-6 Hail 1.00 in. 0 0 0.00K 0.00K
GATESVILLE CORYELL CO. TX 02/10/2009 21:07 CST-6 Thunderstorm Wind 60 kts. EG 0 0 75.00K 0.00K
HURON HILL CO. TX 02/10/2009 21:10 CST-6 Thunderstorm Wind 70 kts. EG 0 0 60.00K 0.00K
MCGREGOR MCLENNAN CO. TX 02/10/2009 21:10 CST-6 Thunderstorm Wind 60 kts. EG 0 3 60.00K 0.00K
OGLESBY CORYELL CO. TX 02/10/2009 21:14 CST-6 Hail 1.00 in. 0 0 0.00K 0.00K
EULESS TARRANT CO. TX 02/10/2009 21:15 CST-6 Thunderstorm Wind 56 kts. EG 0 0 0.00K 0.00K
GRAPEVINE S LAKE ARP TARRANT CO. TX 02/10/2009 21:15 CST-6 Tornado EF1 0 0 750.00K 0.00K
IRVING DALLAS CO. TX 02/10/2009 21:15 CST-6 Thunderstorm Wind 52 kts. EG 0 0 0.00K 0.00K
LAGUNA PARK BOSQUE CO. TX 02/10/2009 21:15 CST-6 Thunderstorm Wind 70 kts. EG 0 0 100.00K 0.00K
(ACT)MADISON-COOPER MCLENNAN CO. TX 02/10/2009 21:19 CST-6 Thunderstorm Wind 51 kts. MG 0 0 0.00K 0.00K
HILLSBORO HILL CO. TX 02/10/2009 21:20 CST-6 Hail 1.75 in. 0 0 5.00K 0.00K
HOWE GRAYSON CO. TX 02/10/2009 21:20 CST-6 Thunderstorm Wind 65 kts. EG 0 0 8.00K 0.00K
SALADO BELL CO. TX 02/10/2009 21:22 CST-6 Thunderstorm Wind 61 kts. EG 0 0 0.00K 0.00K
HILLSBORO HILL CO. TX 02/10/2009 21:24 CST-6 Thunderstorm Wind 76 kts. EG 0 0 0.00K 0.00K
BELTON BELL CO. TX 02/10/2009 21:28 CST-6 Hail 0.75 in. 0 0 0.00K 0.00K
HILLSBORO HILL CO. TX 02/10/2009 21:28 CST-6 Thunderstorm Wind 73 kts. EG 0 0 50.00K 0.00K
LEWISVILLE DENTON CO. TX 02/10/2009 21:30 CST-6 Hail 0.88 in. 0 0 0.00K 0.00K
LORENA MCLENNAN CO. TX 02/10/2009 21:30 CST-6 Hail 1.75 in. 0 0 5.00K 0.00K
TROY BELL CO. TX 02/10/2009 21:30 CST-6 Thunderstorm Wind 70 kts. EG 0 0 50.00K 0.00K
EAST WACO MCLENNAN CO. TX 02/10/2009 21:35 CST-6 Thunderstorm Wind 70 kts. EG 0 0 10.00K 0.00K
WACO MCLENNAN CO. TX 02/10/2009 21:35 CST-6 Thunderstorm Wind 60 kts. EG 0 0 25.00K 0.00K
EDDY MCLENNAN CO. TX 02/10/2009 21:40 CST-6 Thunderstorm Wind 61 kts. EG 0 0 0.00K 0.00K
BARDWELL ELLIS CO. TX 02/10/2009 21:45 CST-6 Hail 0.75 in. 0 0 0.00K 0.00K
KIRK LIMESTONE CO. TX 02/10/2009 21:50 CST-6 Thunderstorm Wind 60 kts. EG 0 0 10.00K 0.00K
GARLAND DALLAS CO. TX 02/10/2009 21:53 CST-6 Thunderstorm Wind 70 kts. EG 0 0 0.00K 0.00K
CORSICANA NAVARRO CO. TX 02/10/2009 22:00 CST-6 Thunderstorm Wind 70 kts. EG 0 0 20.00K 0.00K
WATT LIMESTONE CO. TX 02/10/2009 22:00 CST-6 Thunderstorm Wind 78 kts. EG 0 0 8.00K 0.00K
WYLIE COLLIN CO. TX 02/10/2009 22:00 CST-6 Thunderstorm Wind 65 kts. EG 0 0 50.00K 0.00K
MELISSA COLLIN CO. TX 02/10/2009 22:03 CST-6 Hail 1.00 in. 0 0 0.00K 0.00K
CORSICANA NAVARRO CO. TX 02/10/2009 22:05 CST-6 Thunderstorm Wind 60 kts. EG 0 0 8.00K 0.00K
LOTT FALLS CO. TX 02/10/2009 22:05 CST-6 Thunderstorm Wind 66 kts. EG 0 0 0.00K 0.00K
CORSICANA MUNI ARPT NAVARRO CO. TX 02/10/2009 22:09 CST-6 Thunderstorm Wind 53 kts. MG 0 0 0.00K 0.00K
DATURA LIMESTONE CO. TX 02/10/2009 22:15 CST-6 Thunderstorm Wind 75 kts. EG 0 0 5.00K 0.00K
TEHUACANA LIMESTONE CO. TX 02/10/2009 22:17 CST-6 Thunderstorm Wind 56 kts. EG 0 0 0.00K 0.00K
SIMBORO FREESTONE CO. TX 02/10/2009 22:20 CST-6 Thunderstorm Wind 66 kts. EG 0 0 0.00K 0.00K
HEARNE MUNI ARPT ROBERTSON CO. TX 02/10/2009 22:25 CST-6 Thunderstorm Wind 56 kts. MG 0 0 0.00K 0.00K
WINKLER NAVARRO CO. TX 02/10/2009 22:25 CST-6 Thunderstorm Wind 60 kts. EG 0 0 0.00K 0.00K
GREENVILLE HUNT CO. TX 02/10/2009 22:30 CST-6 Thunderstorm Wind 61 kts. EG 0 0 20.00K 0.00K
HOYTE MILAM CO. TX 02/10/2009 22:30 CST-6 Thunderstorm Wind 65 kts. EG 0 0 15.00K 0.00K
MINERAL HGTS HUNT CO. TX 02/10/2009 22:32 CST-6 Thunderstorm Wind 61 kts. EG 0 0 20.00K 0.00K
PAYNE SPRINGS HENDERSON CO. TX 02/10/2009 22:35 CST-6 Thunderstorm Wind 58 kts. EG 0 0 10.00K 0.00K
JEWETT LEON CO. TX 02/10/2009 22:52 CST-6 Thunderstorm Wind 64 kts. EG 0 0 0.00K 0.00K
LARUE HENDERSON CO. TX 02/10/2009 22:57 CST-6 Hail 1.00 in. 0 0 0.00K 0.00K
LARUE HENDERSON CO. TX 02/10/2009 22:57 CST-6 Thunderstorm Wind 52 kts. EG 0 0 0.00K 0.00K
BUFFALO LEON CO. TX 02/10/2009 23:00 CST-6 Thunderstorm Wind 52 kts. EG 0 0 0.00K 0.00K
PAYNOR HENDERSON CO. TX 02/10/2009 23:00 CST-6 Thunderstorm Wind 70 kts. EG 0 0 0.00K 0.00K
MARTIN SPGS HOPKINS CO. TX 02/10/2009 23:04 CST-6 Thunderstorm Wind 80 kts. EG 0 0 75.00K 0.00K
MONTALBA ANDERSON CO. TX 02/10/2009 23:09 CST-6 Thunderstorm Wind 56 kts. EG 0 0 0.00K 0.00K
PALESTINE ANDERSON CO. TX 02/10/2009 23:10 CST-6 Thunderstorm Wind 52 kts. EG 0 0 0.00K 0.00K
CENTERVILLE LEON CO. TX 02/10/2009 23:12 CST-6 Thunderstorm Wind 56 kts. EG 0 0 0.00K 0.00K
CHANDLER HENDERSON CO. TX 02/10/2009 23:12 CST-6 Thunderstorm Wind 58 kts. EG 0 0 5.00K 0.00K
MONTALBA ANDERSON CO. TX 02/10/2009 23:12 CST-6 Hail 0.88 in. 0 0 0.00K 0.00K
ELKHART ANDERSON CO. TX 02/10/2009 23:28 CST-6 Thunderstorm Wind 52 kts. EG 0 0 0.00K 0.00K
Totals: 0 3 1.604M 0.00K